sensor_id;sensor_type;location;lat;lon;timestamp;P1;durP1;ratioP1;P2;durP2;ratioP2
7231;SDS011;3657;49.630;11.018;2023-04-15T00:01:34;8.87;;;8.57;;
7231;SDS011;3657;49.630;11.018;2023-04-15T00:04:02;9.07;;;8.77;;
7231;SDS011;3657;49.630;11.018;2023-04-15T00:06:28;8.97;;;8.63;;
7231;SDS011;3657;49.630;11.018;2023-04-15T00:08:56;8.00;;;7.60;;
7231;SDS011;3657;49.630;11.018;2023-04-15T00:11:23;8.60;;;8.30;;
7231;SDS011;3657;49.630;11.018;2023-04-15T00:13:50;8.53;;;8.23;;
7231;SDS011;3657;49.630;11.018;2023-04-15T00:16:16;9.00;;;8.70;;
7231;SDS011;3657;49.630;11.018;2023-04-15T00:18:43;9.33;;;9.00;;
7231;SDS011;3657;49.630;11.018;2023-04-15T00:21:09;8.53;;;8.23;;
7231;SDS011;3657;49.630;11.018;2023-04-15T00:23:36;8.93;;;8.63;;
7231;SDS011;3657;49.630;11.018;2023-04-15T00:26:04;9.00;;;8.63;;
7231;SDS011;3657;49.630;11.018;2023-04-15T00:28:31;8.17;;;7.87;;
7231;SDS011;3657;49.630;11.018;2023-04-15T00:30:58;10.40;;;10.10;;
7231;SDS011;3657;49.630;11.018;2023-04-15T00:33:24;8.83;;;8.53;;
7231;SDS011;3657;49.630;11.018;2023-04-15T00:35:51;8.50;;;8.17;;
7231;SDS011;3657;49.630;11.018;2023-04-15T00:38:18;8.30;;;8.00;;
7231;SDS011;3657;49.630;11.018;2023-04-15T00:40:44;8.30;;;8.00;;
7231;SDS011;3657;49.630;11.018;2023-04-15T00:43:12;10.10;;;9.70;;
7231;SDS011;3657;49.630;11.018;2023-04-15T00:45:40;8.87;;;8.57;;
7231;SDS011;3657;49.630;11.018;2023-04-15T00:48:07;8.07;;;7.77;;
7231;SDS011;3657;49.630;11.018;2023-04-15T00:50:34;7.53;;;7.33;;
7231;SDS011;3657;49.630;11.018;2023-04-15T00:53:01;7.63;;;7.43;;
7231;SDS011;3657;49.630;11.018;2023-04-15T00:55:27;7.90;;;7.60;;
7231;SDS011;3657;49.630;11.018;2023-04-15T00:57:54;8.30;;;8.00;;
7231;SDS011;3657;49.630;11.018;2023-04-15T01:00:23;7.57;;;7.37;;
7231;SDS011;3657;49.630;11.018;2023-04-15T01:02:50;8.20;;;7.90;;
7231;SDS011;3657;49.630;11.018;2023-04-15T01:05:17;7.73;;;7.30;;
7231;SDS011;3657;49.630;11.018;2023-04-15T01:07:45;7.80;;;7.60;;
7231;SDS011;3657;49.630;11.018;2023-04-15T01:10:12;7.60;;;7.40;;
7231;SDS011;3657;49.630;11.018;2023-04-15T01:12:39;6.90;;;6.70;;
7231;SDS011;3657;49.630;11.018;2023-04-15T01:15:07;8.13;;;7.93;;
7231;SDS011;3657;49.630;11.018;2023-04-15T01:17:36;8.17;;;7.87;;
7231;SDS011;3657;49.630;11.018;2023-04-15T01:20:04;7.80;;;7.60;;
7231;SDS011;3657;49.630;11.018;2023-04-15T01:22:34;8.33;;;8.03;;
7231;SDS011;3657;49.630;11.018;2023-04-15T01:25:04;7.33;;;7.13;;
7231;SDS011;3657;49.630;11.018;2023-04-15T01:27:35;10.30;;;9.90;;
7231;SDS011;3657;49.630;11.018;2023-04-15T01:30:05;7.53;;;7.33;;
7231;SDS011;3657;49.630;11.018;2023-04-15T01:32:32;10.30;;;9.80;;
7231;SDS011;3657;49.630;11.018;2023-04-15T01:34:59;8.53;;;8.23;;
7231;SDS011;3657;49.630;11.018;2023-04-15T01:37:26;8.27;;;7.90;;
7231;SDS011;3657;49.630;11.018;2023-04-15T01:39:53;7.40;;;7.10;;
7231;SDS011;3657;49.630;11.018;2023-04-15T01:42:21;8.00;;;7.70;;
7231;SDS011;3657;49.630;11.018;2023-04-15T01:44:49;8.70;;;8.40;;
7231;SDS011;3657;49.630;11.018;2023-04-15T01:47:15;8.00;;;7.80;;
7231;SDS011;3657;49.630;11.018;2023-04-15T01:49:42;7.93;;;7.63;;
7231;SDS011;3657;49.630;11.018;2023-04-15T01:52:09;7.80;;;7.60;;
7231;SDS011;3657;49.630;11.018;2023-04-15T01:54:35;7.93;;;7.73;;
7231;SDS011;3657;49.630;11.018;2023-04-15T01:57:02;8.27;;;7.97;;
7231;SDS011;3657;49.630;11.018;2023-04-15T01:59:29;9.47;;;9.17;;
7231;SDS011;3657;49.630;11.018;2023-04-15T02:01:57;8.73;;;8.43;;
7231;SDS011;3657;49.630;11.018;2023-04-15T02:04:25;7.67;;;7.47;;
7231;SDS011;3657;49.630;11.018;2023-04-15T02:06:52;7.63;;;7.43;;
7231;SDS011;3657;49.630;11.018;2023-04-15T02:09:18;7.63;;;7.33;;
7231;SDS011;3657;49.630;11.018;2023-04-15T02:11:45;7.63;;;7.30;;
7231;SDS011;3657;49.630;11.018;2023-04-15T02:14:11;7.40;;;7.20;;
7231;SDS011;3657;49.630;11.018;2023-04-15T02:16:38;7.43;;;7.23;;
7231;SDS011;3657;49.630;11.018;2023-04-15T02:19:06;8.13;;;7.83;;
7231;SDS011;3657;49.630;11.018;2023-04-15T02:21:33;8.00;;;7.80;;
7231;SDS011;3657;49.630;11.018;2023-04-15T02:24:00;7.90;;;7.70;;
7231;SDS011;3657;49.630;11.018;2023-04-15T02:26:28;9.00;;;8.60;;
7231;SDS011;3657;49.630;11.018;2023-04-15T02:28:56;7.63;;;7.33;;
7231;SDS011;3657;49.630;11.018;2023-04-15T02:31:23;9.63;;;9.20;;
7231;SDS011;3657;49.630;11.018;2023-04-15T02:33:50;9.37;;;9.07;;
7231;SDS011;3657;49.630;11.018;2023-04-15T02:36:18;10.00;;;9.50;;
7231;SDS011;3657;49.630;11.018;2023-04-15T02:38:45;7.33;;;7.13;;
7231;SDS011;3657;49.630;11.018;2023-04-15T02:41:12;7.70;;;7.43;;
7231;SDS011;3657;49.630;11.018;2023-04-15T02:43:39;9.70;;;9.27;;
7231;SDS011;3657;49.630;11.018;2023-04-15T02:46:05;7.70;;;7.50;;
7231;SDS011;3657;49.630;11.018;2023-04-15T02:48:32;10.23;;;9.83;;
7231;SDS011;3657;49.630;11.018;2023-04-15T02:51:12;7.00;;;6.80;;
7231;SDS011;3657;49.630;11.018;2023-04-15T02:53:41;6.90;;;6.70;;
7231;SDS011;3657;49.630;11.018;2023-04-15T02:56:07;10.63;;;10.13;;
7231;SDS011;3657;49.630;11.018;2023-04-15T02:58:35;8.67;;;8.37;;
7231;SDS011;3657;49.630;11.018;2023-04-15T03:01:02;7.20;;;7.00;;
7231;SDS011;3657;49.630;11.018;2023-04-15T03:03:29;6.93;;;6.73;;
7231;SDS011;3657;49.630;11.018;2023-04-15T03:05:55;6.53;;;6.33;;
7231;SDS011;3657;49.630;11.018;2023-04-15T03:08:22;7.47;;;7.27;;
7231;SDS011;3657;49.630;11.018;2023-04-15T03:10:50;6.43;;;6.23;;
7231;SDS011;3657;49.630;11.018;2023-04-15T03:13:18;6.87;;;6.67;;
7231;SDS011;3657;49.630;11.018;2023-04-15T03:15:45;6.53;;;6.33;;
7231;SDS011;3657;49.630;11.018;2023-04-15T03:18:12;7.00;;;6.80;;
7231;SDS011;3657;49.630;11.018;2023-04-15T03:20:39;6.87;;;6.67;;
7231;SDS011;3657;49.630;11.018;2023-04-15T03:23:05;6.77;;;6.57;;
7231;SDS011;3657;49.630;11.018;2023-04-15T03:25:32;6.53;;;6.33;;
7231;SDS011;3657;49.630;11.018;2023-04-15T03:28:00;6.83;;;6.63;;
7231;SDS011;3657;49.630;11.018;2023-04-15T03:30:27;10.10;;;9.70;;
7231;SDS011;3657;49.630;11.018;2023-04-15T03:32:54;7.37;;;7.07;;
7231;SDS011;3657;49.630;11.018;2023-04-15T03:35:20;6.93;;;6.73;;
7231;SDS011;3657;49.630;11.018;2023-04-15T03:37:47;6.20;;;5.90;;
7231;SDS011;3657;49.630;11.018;2023-04-15T03:40:14;6.80;;;6.60;;
7231;SDS011;3657;49.630;11.018;2023-04-15T03:42:40;7.53;;;7.23;;
7231;SDS011;3657;49.630;11.018;2023-04-15T03:45:09;7.13;;;6.90;;
7231;SDS011;3657;49.630;11.018;2023-04-15T03:47:36;6.90;;;6.70;;
7231;SDS011;3657;49.630;11.018;2023-04-15T03:50:03;6.93;;;6.70;;
7231;SDS011;3657;49.630;11.018;2023-04-15T03:52:31;7.77;;;7.47;;
7231;SDS011;3657;49.630;11.018;2023-04-15T03:54:57;6.70;;;6.50;;
7231;SDS011;3657;49.630;11.018;2023-04-15T03:57:24;6.70;;;6.50;;
7231;SDS011;3657;49.630;11.018;2023-04-15T03:59:51;6.27;;;6.07;;
7231;SDS011;3657;49.630;11.018;2023-04-15T04:02:19;6.40;;;6.20;;
7231;SDS011;3657;49.630;11.018;2023-04-15T04:04:47;6.83;;;6.63;;
7231;SDS011;3657;49.630;11.018;2023-04-15T04:07:14;7.10;;;6.90;;
7231;SDS011;3657;49.630;11.018;2023-04-15T04:09:41;6.93;;;6.73;;
7231;SDS011;3657;49.630;11.018;2023-04-15T04:12:08;6.20;;;6.00;;
7231;SDS011;3657;49.630;11.018;2023-04-15T04:14:34;7.33;;;7.13;;
7231;SDS011;3657;49.630;11.018;2023-04-15T04:17:01;9.23;;;8.93;;
7231;SDS011;3657;49.630;11.018;2023-04-15T04:19:29;10.37;;;9.77;;
7231;SDS011;3657;49.630;11.018;2023-04-15T04:21:55;7.13;;;6.93;;
7231;SDS011;3657;49.630;11.018;2023-04-15T04:24:22;6.10;;;5.90;;
7231;SDS011;3657;49.630;11.018;2023-04-15T04:26:49;6.80;;;6.60;;
7231;SDS011;3657;49.630;11.018;2023-04-15T04:29:16;6.80;;;6.50;;
7231;SDS011;3657;49.630;11.018;2023-04-15T04:31:42;6.60;;;6.40;;
7231;SDS011;3657;49.630;11.018;2023-04-15T04:34:09;6.13;;;5.87;;
7231;SDS011;3657;49.630;11.018;2023-04-15T04:36:37;6.00;;;5.80;;
7231;SDS011;3657;49.630;11.018;2023-04-15T04:39:04;9.23;;;8.80;;
7231;SDS011;3657;49.630;11.018;2023-04-15T04:41:31;6.37;;;6.17;;
7231;SDS011;3657;49.630;11.018;2023-04-15T04:43:57;6.73;;;6.53;;
7231;SDS011;3657;49.630;11.018;2023-04-15T04:46:24;6.93;;;6.63;;
7231;SDS011;3657;49.630;11.018;2023-04-15T04:48:51;7.03;;;6.83;;
7231;SDS011;3657;49.630;11.018;2023-04-15T04:51:18;6.53;;;6.33;;
7231;SDS011;3657;49.630;11.018;2023-04-15T04:53:46;5.83;;;5.63;;
7231;SDS011;3657;49.630;11.018;2023-04-15T04:56:12;6.57;;;6.37;;
7231;SDS011;3657;49.630;11.018;2023-04-15T04:58:39;6.43;;;6.23;;
7231;SDS011;3657;49.630;11.018;2023-04-15T05:01:06;5.90;;;5.70;;
7231;SDS011;3657;49.630;11.018;2023-04-15T05:03:33;6.53;;;6.33;;
7231;SDS011;3657;49.630;11.018;2023-04-15T05:06:00;5.97;;;5.77;;
7231;SDS011;3657;49.630;11.018;2023-04-15T05:08:30;5.90;;;5.70;;
7231;SDS011;3657;49.630;11.018;2023-04-15T05:10:58;7.83;;;7.53;;
7231;SDS011;3657;49.630;11.018;2023-04-15T05:13:24;6.30;;;6.10;;
7231;SDS011;3657;49.630;11.018;2023-04-15T05:15:51;6.40;;;6.13;;
7231;SDS011;3657;49.630;11.018;2023-04-15T05:18:18;6.50;;;6.30;;
7231;SDS011;3657;49.630;11.018;2023-04-15T05:20:44;6.30;;;6.10;;
7231;SDS011;3657;49.630;11.018;2023-04-15T05:23:11;6.67;;;6.37;;
7231;SDS011;3657;49.630;11.018;2023-04-15T05:25:38;6.50;;;6.30;;
7231;SDS011;3657;49.630;11.018;2023-04-15T05:28:06;6.03;;;5.83;;
7231;SDS011;3657;49.630;11.018;2023-04-15T05:30:33;6.53;;;6.33;;
7231;SDS011;3657;49.630;11.018;2023-04-15T05:33:00;6.40;;;6.20;;
7231;SDS011;3657;49.630;11.018;2023-04-15T05:35:26;6.20;;;5.90;;
7231;SDS011;3657;49.630;11.018;2023-04-15T05:37:53;6.37;;;6.07;;
7231;SDS011;3657;49.630;11.018;2023-04-15T05:40:19;7.00;;;6.80;;
7231;SDS011;3657;49.630;11.018;2023-04-15T05:42:46;5.90;;;5.70;;
7231;SDS011;3657;49.630;11.018;2023-04-15T05:45:14;6.43;;;6.23;;
7231;SDS011;3657;49.630;11.018;2023-04-15T05:47:41;6.00;;;5.90;;
7231;SDS011;3657;49.630;11.018;2023-04-15T05:50:08;6.20;;;6.00;;
7231;SDS011;3657;49.630;11.018;2023-04-15T05:52:35;6.40;;;6.20;;
7231;SDS011;3657;49.630;11.018;2023-04-15T05:55:02;6.80;;;6.60;;
7231;SDS011;3657;49.630;11.018;2023-04-15T05:57:30;6.13;;;5.93;;
7231;SDS011;3657;49.630;11.018;2023-04-15T05:59:56;6.50;;;6.30;;
7231;SDS011;3657;49.630;11.018;2023-04-15T06:02:24;5.90;;;5.80;;
7231;SDS011;3657;49.630;11.018;2023-04-15T06:04:51;5.93;;;5.73;;
7231;SDS011;3657;49.630;11.018;2023-04-15T06:07:18;9.10;;;8.60;;
7231;SDS011;3657;49.630;11.018;2023-04-15T06:09:45;9.20;;;8.87;;
7231;SDS011;3657;49.630;11.018;2023-04-15T06:12:11;5.87;;;5.67;;
7231;SDS011;3657;49.630;11.018;2023-04-15T06:14:38;7.10;;;6.90;;
7231;SDS011;3657;49.630;11.018;2023-04-15T06:17:05;9.07;;;8.77;;
7231;SDS011;3657;49.630;11.018;2023-04-15T06:19:33;10.07;;;9.67;;
7231;SDS011;3657;49.630;11.018;2023-04-15T06:22:00;11.90;;;11.20;;
7231;SDS011;3657;49.630;11.018;2023-04-15T06:24:27;6.50;;;6.30;;
7231;SDS011;3657;49.630;11.018;2023-04-15T06:26:54;6.40;;;6.20;;
7231;SDS011;3657;49.630;11.018;2023-04-15T06:29:21;7.50;;;7.30;;
7231;SDS011;3657;49.630;11.018;2023-04-15T06:31:48;8.27;;;7.97;;
7231;SDS011;3657;49.630;11.018;2023-04-15T06:34:15;6.93;;;6.73;;
7231;SDS011;3657;49.630;11.018;2023-04-15T06:36:43;9.13;;;8.57;;
7231;SDS011;3657;49.630;11.018;2023-04-15T06:39:09;6.47;;;6.27;;
7231;SDS011;3657;49.630;11.018;2023-04-15T06:41:36;6.70;;;6.50;;
7231;SDS011;3657;49.630;11.018;2023-04-15T06:44:03;6.80;;;6.60;;
7231;SDS011;3657;49.630;11.018;2023-04-15T06:46:30;6.63;;;6.43;;
7231;SDS011;3657;49.630;11.018;2023-04-15T06:48:56;6.83;;;6.63;;
7231;SDS011;3657;49.630;11.018;2023-04-15T06:51:23;6.77;;;6.47;;
7231;SDS011;3657;49.630;11.018;2023-04-15T06:53:51;6.13;;;5.93;;
7231;SDS011;3657;49.630;11.018;2023-04-15T06:56:18;14.83;;;14.10;;
7231;SDS011;3657;49.630;11.018;2023-04-15T06:58:44;6.90;;;6.70;;
7231;SDS011;3657;49.630;11.018;2023-04-15T07:01:11;6.63;;;6.43;;
7231;SDS011;3657;49.630;11.018;2023-04-15T07:03:38;8.40;;;8.03;;
7231;SDS011;3657;49.630;11.018;2023-04-15T07:06:05;7.00;;;6.77;;
7231;SDS011;3657;49.630;11.018;2023-04-15T07:08:33;7.20;;;6.90;;
7231;SDS011;3657;49.630;11.018;2023-04-15T07:11:01;10.77;;;9.97;;
7231;SDS011;3657;49.630;11.018;2023-04-15T07:13:29;8.50;;;8.20;;
7231;SDS011;3657;49.630;11.018;2023-04-15T07:15:56;7.23;;;7.03;;
7231;SDS011;3657;49.630;11.018;2023-04-15T07:18:23;8.10;;;7.87;;
7231;SDS011;3657;49.630;11.018;2023-04-15T07:20:50;9.43;;;9.13;;
7231;SDS011;3657;49.630;11.018;2023-04-15T07:23:16;6.70;;;6.50;;
7231;SDS011;3657;49.630;11.018;2023-04-15T07:25:43;9.83;;;9.37;;
7231;SDS011;3657;49.630;11.018;2023-04-15T07:28:11;8.53;;;8.13;;
7231;SDS011;3657;49.630;11.018;2023-04-15T07:30:38;10.33;;;9.93;;
7231;SDS011;3657;49.630;11.018;2023-04-15T07:33:05;7.23;;;6.93;;
7231;SDS011;3657;49.630;11.018;2023-04-15T07:35:32;7.50;;;7.30;;
7231;SDS011;3657;49.630;11.018;2023-04-15T07:37:58;9.20;;;8.80;;
7231;SDS011;3657;49.630;11.018;2023-04-15T07:40:25;7.23;;;6.93;;
7231;SDS011;3657;49.630;11.018;2023-04-15T07:42:52;7.17;;;6.97;;
7231;SDS011;3657;49.630;11.018;2023-04-15T07:45:20;8.67;;;8.37;;
7231;SDS011;3657;49.630;11.018;2023-04-15T07:47:46;8.90;;;8.60;;
7231;SDS011;3657;49.630;11.018;2023-04-15T07:50:14;9.17;;;8.77;;
7231;SDS011;3657;49.630;11.018;2023-04-15T07:52:42;11.00;;;10.60;;
7231;SDS011;3657;49.630;11.018;2023-04-15T07:55:09;8.77;;;8.43;;
7231;SDS011;3657;49.630;11.018;2023-04-15T07:57:36;8.73;;;8.37;;
7231;SDS011;3657;49.630;11.018;2023-04-15T08:00:03;8.17;;;7.87;;
7231;SDS011;3657;49.630;11.018;2023-04-15T08:02:32;9.67;;;9.27;;
7231;SDS011;3657;49.630;11.018;2023-04-15T08:05:00;8.97;;;8.67;;
7231;SDS011;3657;49.630;11.018;2023-04-15T08:07:28;10.27;;;9.90;;
7231;SDS011;3657;49.630;11.018;2023-04-15T08:09:55;9.90;;;9.50;;
7231;SDS011;3657;49.630;11.018;2023-04-15T08:12:22;10.03;;;9.63;;
7231;SDS011;3657;49.630;11.018;2023-04-15T08:14:49;14.20;;;13.23;;
7231;SDS011;3657;49.630;11.018;2023-04-15T08:17:16;14.17;;;13.37;;
7231;SDS011;3657;49.630;11.018;2023-04-15T08:19:44;10.13;;;9.73;;
7231;SDS011;3657;49.630;11.018;2023-04-15T08:22:12;11.27;;;10.77;;
7231;SDS011;3657;49.630;11.018;2023-04-15T08:24:39;9.87;;;9.50;;
7231;SDS011;3657;49.630;11.018;2023-04-15T08:27:06;12.53;;;12.03;;
7231;SDS011;3657;49.630;11.018;2023-04-15T08:29:33;9.07;;;8.67;;
7231;SDS011;3657;49.630;11.018;2023-04-15T08:32:00;8.27;;;7.97;;
7231;SDS011;3657;49.630;11.018;2023-04-15T08:34:26;9.10;;;8.70;;
7231;SDS011;3657;49.630;11.018;2023-04-15T08:36:55;13.73;;;13.07;;
7231;SDS011;3657;49.630;11.018;2023-04-15T08:39:21;11.60;;;11.00;;
7231;SDS011;3657;49.630;11.018;2023-04-15T08:41:51;10.67;;;10.27;;
7231;SDS011;3657;49.630;11.018;2023-04-15T08:44:21;9.93;;;9.57;;
7231;SDS011;3657;49.630;11.018;2023-04-15T08:46:49;11.63;;;11.03;;
7231;SDS011;3657;49.630;11.018;2023-04-15T08:49:16;9.53;;;9.23;;
7231;SDS011;3657;49.630;11.018;2023-04-15T08:51:46;12.10;;;11.40;;
7231;SDS011;3657;49.630;11.018;2023-04-15T08:54:14;8.67;;;8.37;;
7231;SDS011;3657;49.630;11.018;2023-04-15T08:56:41;8.83;;;8.40;;
7231;SDS011;3657;49.630;11.018;2023-04-15T08:59:08;9.97;;;9.57;;
7231;SDS011;3657;49.630;11.018;2023-04-15T09:01:35;11.20;;;10.60;;
7231;SDS011;3657;49.630;11.018;2023-04-15T09:04:02;11.90;;;11.30;;
7231;SDS011;3657;49.630;11.018;2023-04-15T09:06:31;10.13;;;9.73;;
7231;SDS011;3657;49.630;11.018;2023-04-15T09:08:59;9.17;;;8.77;;
7231;SDS011;3657;49.630;11.018;2023-04-15T09:11:27;9.40;;;9.03;;
7231;SDS011;3657;49.630;11.018;2023-04-15T09:13:55;11.43;;;10.50;;
7231;SDS011;3657;49.630;11.018;2023-04-15T09:16:22;9.63;;;9.13;;
7231;SDS011;3657;49.630;11.018;2023-04-15T09:18:49;11.13;;;10.53;;
7231;SDS011;3657;49.630;11.018;2023-04-15T09:21:16;10.37;;;9.93;;
7231;SDS011;3657;49.630;11.018;2023-04-15T09:23:52;13.17;;;12.27;;
7231;SDS011;3657;49.630;11.018;2023-04-15T09:26:29;11.53;;;10.93;;
7231;SDS011;3657;49.630;11.018;2023-04-15T09:29:01;11.07;;;10.53;;
7231;SDS011;3657;49.630;11.018;2023-04-15T09:31:30;12.60;;;11.90;;
7231;SDS011;3657;49.630;11.018;2023-04-15T09:33:57;10.33;;;9.93;;
7231;SDS011;3657;49.630;11.018;2023-04-15T09:36:24;13.10;;;12.50;;
7231;SDS011;3657;49.630;11.018;2023-04-15T09:38:54;11.90;;;11.30;;
7231;SDS011;3657;49.630;11.018;2023-04-15T09:41:22;10.57;;;10.17;;
7231;SDS011;3657;49.630;11.018;2023-04-15T09:43:50;10.00;;;9.60;;
7231;SDS011;3657;49.630;11.018;2023-04-15T09:46:17;11.27;;;10.57;;
7231;SDS011;3657;49.630;11.018;2023-04-15T09:48:44;9.27;;;8.97;;
7231;SDS011;3657;49.630;11.018;2023-04-15T09:51:10;7.90;;;7.60;;
7231;SDS011;3657;49.630;11.018;2023-04-15T09:53:38;9.27;;;8.90;;
7231;SDS011;3657;49.630;11.018;2023-04-15T09:56:05;9.27;;;8.87;;
7231;SDS011;3657;49.630;11.018;2023-04-15T09:58:33;9.27;;;8.87;;
7231;SDS011;3657;49.630;11.018;2023-04-15T10:01:04;8.10;;;7.80;;
7231;SDS011;3657;49.630;11.018;2023-04-15T10:03:32;8.10;;;7.80;;
7231;SDS011;3657;49.630;11.018;2023-04-15T10:06:00;7.53;;;7.13;;
7231;SDS011;3657;49.630;11.018;2023-04-15T10:08:28;8.20;;;7.90;;
7231;SDS011;3657;49.630;11.018;2023-04-15T10:10:56;8.87;;;8.57;;
7231;SDS011;3657;49.630;11.018;2023-04-15T10:13:25;7.30;;;7.00;;
7231;SDS011;3657;49.630;11.018;2023-04-15T10:15:57;10.70;;;10.20;;
7231;SDS011;3657;49.630;11.018;2023-04-15T10:18:27;7.70;;;7.50;;
7231;SDS011;3657;49.630;11.018;2023-04-15T10:20:54;7.40;;;7.10;;
7231;SDS011;3657;49.630;11.018;2023-04-15T10:23:21;7.13;;;6.80;;
7231;SDS011;3657;49.630;11.018;2023-04-15T10:25:48;7.50;;;7.30;;
7231;SDS011;3657;49.630;11.018;2023-04-15T10:28:18;7.50;;;7.10;;
7231;SDS011;3657;49.630;11.018;2023-04-15T10:30:46;6.60;;;6.40;;
7231;SDS011;3657;49.630;11.018;2023-04-15T10:33:14;6.77;;;6.57;;
7231;SDS011;3657;49.630;11.018;2023-04-15T10:35:45;6.77;;;6.57;;
7231;SDS011;3657;49.630;11.018;2023-04-15T10:38:31;6.10;;;5.90;;
7231;SDS011;3657;49.630;11.018;2023-04-15T10:41:11;6.20;;;6.00;;
7231;SDS011;3657;49.630;11.018;2023-04-15T10:43:39;7.07;;;6.77;;
7231;SDS011;3657;49.630;11.018;2023-04-15T10:46:10;5.93;;;5.77;;
7231;SDS011;3657;49.630;11.018;2023-04-15T10:48:37;5.80;;;5.60;;
7231;SDS011;3657;49.630;11.018;2023-04-15T10:51:05;6.33;;;6.13;;
7231;SDS011;3657;49.630;11.018;2023-04-15T10:53:31;6.13;;;5.93;;
7231;SDS011;3657;49.630;11.018;2023-04-15T10:55:58;5.97;;;5.77;;
7231;SDS011;3657;49.630;11.018;2023-04-15T10:58:25;5.73;;;5.53;;
7231;SDS011;3657;49.630;11.018;2023-04-15T11:01:06;5.57;;;5.47;;
7231;SDS011;3657;49.630;11.018;2023-04-15T11:03:36;5.23;;;5.13;;
7231;SDS011;3657;49.630;11.018;2023-04-15T11:06:05;6.27;;;6.07;;
7231;SDS011;3657;49.630;11.018;2023-04-15T11:14:31;5.33;;;5.23;;
7231;SDS011;3657;49.630;11.018;2023-04-15T11:16:58;5.50;;;5.30;;
7231;SDS011;3657;49.630;11.018;2023-04-15T11:19:25;4.73;;;4.63;;
7231;SDS011;3657;49.630;11.018;2023-04-15T11:21:53;5.10;;;5.00;;
7231;SDS011;3657;49.630;11.018;2023-04-15T11:24:22;5.03;;;4.93;;
7231;SDS011;3657;49.630;11.018;2023-04-15T11:26:55;5.07;;;4.87;;
7231;SDS011;3657;49.630;11.018;2023-04-15T11:29:27;5.33;;;5.17;;
7231;SDS011;3657;49.630;11.018;2023-04-15T11:32:00;5.40;;;5.30;;
7231;SDS011;3657;49.630;11.018;2023-04-15T11:34:29;5.10;;;5.00;;
7231;SDS011;3657;49.630;11.018;2023-04-15T11:36:58;5.53;;;5.33;;
7231;SDS011;3657;49.630;11.018;2023-04-15T11:39:25;6.63;;;6.43;;
7231;SDS011;3657;49.630;11.018;2023-04-15T11:41:54;8.17;;;7.77;;
7231;SDS011;3657;49.630;11.018;2023-04-15T11:44:21;7.17;;;6.87;;
7231;SDS011;3657;49.630;11.018;2023-04-15T11:46:47;5.60;;;5.50;;
7231;SDS011;3657;49.630;11.018;2023-04-15T11:49:24;5.53;;;5.33;;
7231;SDS011;3657;49.630;11.018;2023-04-15T11:51:51;6.03;;;5.83;;
7231;SDS011;3657;49.630;11.018;2023-04-15T11:54:19;6.77;;;6.57;;
7231;SDS011;3657;49.630;11.018;2023-04-15T11:56:48;5.40;;;5.30;;
7231;SDS011;3657;49.630;11.018;2023-04-15T11:59:15;5.37;;;5.27;;
7231;SDS011;3657;49.630;11.018;2023-04-15T12:01:42;5.00;;;4.90;;
7231;SDS011;3657;49.630;11.018;2023-04-15T12:04:10;4.67;;;4.57;;
7231;SDS011;3657;49.630;11.018;2023-04-15T12:06:38;5.07;;;4.97;;
7231;SDS011;3657;49.630;11.018;2023-04-15T12:09:09;5.20;;;5.00;;
7231;SDS011;3657;49.630;11.018;2023-04-15T12:11:38;4.30;;;4.20;;
7231;SDS011;3657;49.630;11.018;2023-04-15T12:14:12;6.33;;;6.13;;
7231;SDS011;3657;49.630;11.018;2023-04-15T12:16:42;5.40;;;5.20;;
7231;SDS011;3657;49.630;11.018;2023-04-15T12:19:11;4.67;;;4.57;;
7231;SDS011;3657;49.630;11.018;2023-04-15T12:21:39;4.60;;;4.50;;
7231;SDS011;3657;49.630;11.018;2023-04-15T12:24:07;8.40;;;8.10;;
7231;SDS011;3657;49.630;11.018;2023-04-15T12:26:36;5.33;;;5.20;;
7231;SDS011;3657;49.630;11.018;2023-04-15T12:29:09;6.73;;;6.53;;
7231;SDS011;3657;49.630;11.018;2023-04-15T12:31:42;15.33;;;14.27;;
7231;SDS011;3657;49.630;11.018;2023-04-15T12:34:13;11.97;;;11.47;;
7231;SDS011;3657;49.630;11.018;2023-04-15T12:36:40;8.43;;;8.13;;
7231;SDS011;3657;49.630;11.018;2023-04-15T12:39:07;7.43;;;7.13;;
7231;SDS011;3657;49.630;11.018;2023-04-15T12:41:34;7.03;;;6.77;;
7231;SDS011;3657;49.630;11.018;2023-04-15T12:44:01;6.30;;;6.10;;
7231;SDS011;3657;49.630;11.018;2023-04-15T12:46:29;6.20;;;6.00;;
7231;SDS011;3657;49.630;11.018;2023-04-15T12:48:55;5.60;;;5.43;;
7231;SDS011;3657;49.630;11.018;2023-04-15T12:51:22;5.60;;;5.40;;
7231;SDS011;3657;49.630;11.018;2023-04-15T12:53:50;5.83;;;5.63;;
7231;SDS011;3657;49.630;11.018;2023-04-15T12:56:17;6.60;;;6.40;;
7231;SDS011;3657;49.630;11.018;2023-04-15T12:58:43;6.53;;;6.33;;
7231;SDS011;3657;49.630;11.018;2023-04-15T13:01:10;7.43;;;7.23;;
7231;SDS011;3657;49.630;11.018;2023-04-15T13:03:38;8.00;;;7.80;;
7231;SDS011;3657;49.630;11.018;2023-04-15T13:06:05;7.40;;;7.20;;
7231;SDS011;3657;49.630;11.018;2023-04-15T13:08:32;7.10;;;6.90;;
7231;SDS011;3657;49.630;11.018;2023-04-15T13:10:59;6.43;;;6.23;;
7231;SDS011;3657;49.630;11.018;2023-04-15T13:13:25;5.23;;;5.13;;
7231;SDS011;3657;49.630;11.018;2023-04-15T13:15:52;5.40;;;5.30;;
7231;SDS011;3657;49.630;11.018;2023-04-15T13:18:19;5.50;;;5.40;;
7231;SDS011;3657;49.630;11.018;2023-04-15T13:20:49;5.83;;;5.63;;
7231;SDS011;3657;49.630;11.018;2023-04-15T13:23:16;7.80;;;7.53;;
7231;SDS011;3657;49.630;11.018;2023-04-15T13:25:42;9.07;;;8.67;;
7231;SDS011;3657;49.630;11.018;2023-04-15T13:28:10;8.00;;;7.63;;
7231;SDS011;3657;49.630;11.018;2023-04-15T13:30:37;8.10;;;7.83;;
7231;SDS011;3657;49.630;11.018;2023-04-15T13:33:04;9.17;;;8.73;;
7231;SDS011;3657;49.630;11.018;2023-04-15T13:35:31;7.93;;;7.60;;
7231;SDS011;3657;49.630;11.018;2023-04-15T13:37:59;7.50;;;7.30;;
7231;SDS011;3657;49.630;11.018;2023-04-15T13:40:25;6.70;;;6.50;;
7231;SDS011;3657;49.630;11.018;2023-04-15T13:42:52;6.60;;;6.40;;
7231;SDS011;3657;49.630;11.018;2023-04-15T13:45:20;6.10;;;5.90;;
7231;SDS011;3657;49.630;11.018;2023-04-15T13:47:46;5.73;;;5.53;;
7231;SDS011;3657;49.630;11.018;2023-04-15T13:50:13;5.80;;;5.60;;
7231;SDS011;3657;49.630;11.018;2023-04-15T13:52:40;6.00;;;5.80;;
7231;SDS011;3657;49.630;11.018;2023-04-15T13:55:08;5.00;;;4.90;;
7231;SDS011;3657;49.630;11.018;2023-04-15T13:57:35;5.63;;;5.47;;
7231;SDS011;3657;49.630;11.018;2023-04-15T14:00:02;5.47;;;5.37;;
7231;SDS011;3657;49.630;11.018;2023-04-15T14:02:30;5.10;;;5.00;;
7231;SDS011;3657;49.630;11.018;2023-04-15T14:04:56;4.70;;;4.60;;
7231;SDS011;3657;49.630;11.018;2023-04-15T14:07:23;4.87;;;4.77;;
7231;SDS011;3657;49.630;11.018;2023-04-15T14:09:50;5.07;;;4.93;;
7231;SDS011;3657;49.630;11.018;2023-04-15T14:12:18;4.43;;;4.33;;
7231;SDS011;3657;49.630;11.018;2023-04-15T14:14:44;5.50;;;5.40;;
7231;SDS011;3657;49.630;11.018;2023-04-15T14:17:11;4.90;;;4.80;;
7231;SDS011;3657;49.630;11.018;2023-04-15T14:19:37;5.30;;;5.10;;
7231;SDS011;3657;49.630;11.018;2023-04-15T14:22:04;5.17;;;5.03;;
7231;SDS011;3657;49.630;11.018;2023-04-15T14:24:31;7.07;;;6.87;;
7231;SDS011;3657;49.630;11.018;2023-04-15T14:26:57;6.37;;;6.17;;
7231;SDS011;3657;49.630;11.018;2023-04-15T14:29:27;5.80;;;5.60;;
7231;SDS011;3657;49.630;11.018;2023-04-15T14:31:55;6.10;;;5.90;;
7231;SDS011;3657;49.630;11.018;2023-04-15T14:34:23;5.03;;;4.93;;
7231;SDS011;3657;49.630;11.018;2023-04-15T14:36:50;5.50;;;5.40;;
7231;SDS011;3657;49.630;11.018;2023-04-15T14:39:17;4.90;;;4.80;;
7231;SDS011;3657;49.630;11.018;2023-04-15T14:41:44;4.83;;;4.73;;
7231;SDS011;3657;49.630;11.018;2023-04-15T14:44:10;4.53;;;4.43;;
7231;SDS011;3657;49.630;11.018;2023-04-15T14:46:38;4.93;;;4.83;;
7231;SDS011;3657;49.630;11.018;2023-04-15T14:49:05;5.30;;;5.20;;
7231;SDS011;3657;49.630;11.018;2023-04-15T14:51:32;5.27;;;5.17;;
7231;SDS011;3657;49.630;11.018;2023-04-15T14:53:59;4.83;;;4.73;;
7231;SDS011;3657;49.630;11.018;2023-04-15T14:56:26;5.47;;;5.37;;
7231;SDS011;3657;49.630;11.018;2023-04-15T14:58:52;6.07;;;5.87;;
7231;SDS011;3657;49.630;11.018;2023-04-15T15:01:19;6.33;;;6.13;;
7231;SDS011;3657;49.630;11.018;2023-04-15T15:03:48;5.80;;;5.60;;
7231;SDS011;3657;49.630;11.018;2023-04-15T15:06:14;6.67;;;6.47;;